createdAt,value
2018-07-02T00:02:25.238Z,102422.13
2018-07-02T00:04:53.008Z,102427.61
2018-07-02T00:07:22.344Z,102421.59
2018-07-02T00:09:50.683Z,102425.65
2018-07-02T00:12:19.451Z,102425.80
2018-07-02T00:14:48.228Z,102430.84
2018-07-02T00:17:16.090Z,102418.77
2018-07-02T00:19:43.884Z,102424.19
2018-07-02T00:22:12.237Z,102428.92
2018-07-02T00:24:40.123Z,102423.17
2018-07-02T00:27:08.116Z,102419.42
2018-07-02T00:29:35.948Z,102422.02
2018-07-02T00:32:03.803Z,102416.97
2018-07-02T00:34:31.603Z,102419.33
2018-07-02T00:36:59.444Z,102412.42
2018-07-02T00:39:27.219Z,102416.50
2018-07-02T00:41:55.057Z,102414.97
2018-07-02T00:44:22.883Z,102410.77
2018-07-02T00:46:50.684Z,102404.30
2018-07-02T00:49:18.441Z,102408.00
2018-07-02T00:51:46.247Z,102400.35
2018-07-02T00:54:14.013Z,102398.88
2018-07-02T00:56:41.830Z,102402.48
2018-07-02T00:59:09.646Z,102400.83
2018-07-02T01:01:37.524Z,102398.04
2018-07-02T01:04:05.348Z,102393.14
2018-07-02T01:06:33.116Z,102386.11
2018-07-02T01:09:00.892Z,102391.80
2018-07-02T01:11:28.733Z,102395.78
2018-07-02T01:13:56.556Z,102402.12
2018-07-02T01:16:24.332Z,102395.17
2018-07-02T01:18:52.123Z,102400.56
2018-07-02T01:21:20.333Z,102394.95
2018-07-02T01:23:48.140Z,102393.02
2018-07-02T01:26:16.595Z,102396.40
2018-07-02T01:28:44.986Z,102395.28
2018-07-02T01:31:13.079Z,102395.48
2018-07-02T01:33:40.924Z,102395.13
2018-07-02T01:36:08.772Z,102388.34
2018-07-02T01:38:36.549Z,102387.66
2018-07-02T01:41:04.372Z,102389.78
2018-07-02T01:43:33.011Z,102390.31
2018-07-02T01:46:00.984Z,102400.58
2018-07-02T01:48:28.756Z,102389.55
2018-07-02T01:50:56.528Z,102390.66
2018-07-02T01:53:24.703Z,102392.54
2018-07-02T01:55:52.532Z,102391.82
2018-07-02T01:58:20.330Z,102388.52
2018-07-02T02:00:48.117Z,102387.82
2018-07-02T02:03:15.905Z,102384.33
2018-07-02T02:05:43.692Z,102383.53
2018-07-02T02:08:11.515Z,102377.84
2018-07-02T02:10:39.323Z,102379.44
2018-07-02T02:13:07.070Z,102378.41
2018-07-02T02:15:34.877Z,102371.70
2018-07-02T02:18:02.666Z,102367.67
2018-07-02T02:20:30.511Z,102371.56
2018-07-02T02:22:58.292Z,102364.91
2018-07-02T02:25:26.101Z,102365.47
2018-07-02T02:27:53.877Z,102369.91
2018-07-02T02:30:21.679Z,102364.79
2018-07-02T02:32:49.450Z,102361.62
2018-07-02T02:35:17.276Z,102350.11
2018-07-02T02:37:45.058Z,102353.62
2018-07-02T02:40:12.860Z,102342.16
2018-07-02T02:42:40.604Z,102342.87
2018-07-02T02:45:08.425Z,102337.61
2018-07-02T02:47:36.320Z,102339.52
2018-07-02T02:50:04.165Z,102334.00
2018-07-02T02:52:31.939Z,102335.55
2018-07-02T02:54:59.723Z,102332.16
2018-07-02T02:57:27.491Z,102333.52
2018-07-02T02:59:55.272Z,102330.65
2018-07-02T03:02:23.058Z,102328.82
2018-07-02T03:04:50.831Z,102321.41
2018-07-02T03:07:18.620Z,102316.93
2018-07-02T03:09:46.437Z,102317.72
2018-07-02T03:12:14.234Z,102320.12
2018-07-02T03:14:42.008Z,102316.42
2018-07-02T03:17:09.774Z,102317.28
2018-07-02T03:19:37.559Z,102311.18
2018-07-02T03:22:05.676Z,102295.39
2018-07-02T03:24:33.474Z,102303.79
2018-07-02T03:27:01.241Z,102302.84
2018-07-02T03:29:29.033Z,102299.19
2018-07-02T03:31:56.795Z,102294.83
2018-07-02T03:34:24.591Z,102289.27
2018-07-02T03:36:52.391Z,102292.02
2018-07-02T03:39:20.160Z,102287.05
2018-07-02T03:41:47.955Z,102287.44
2018-07-02T03:44:15.729Z,102281.70
2018-07-02T03:46:43.459Z,102280.72
2018-07-02T03:49:11.242Z,102280.23
2018-07-02T03:51:39.023Z,102282.30
2018-07-02T03:54:06.789Z,102284.26
2018-07-02T03:56:34.635Z,102281.35
2018-07-02T03:59:02.433Z,102263.60
2018-07-02T04:01:30.228Z,102248.96
2018-07-02T04:03:58.079Z,102251.88
2018-07-02T04:06:25.757Z,102249.11
2018-07-02T04:08:53.472Z,102251.79
2018-07-02T04:11:21.125Z,102237.47
2018-07-02T04:13:48.813Z,102243.06
2018-07-02T04:16:16.526Z,102235.47
2018-07-02T04:18:44.265Z,102228.56
2018-07-02T04:21:11.977Z,102231.13
2018-07-02T04:23:39.691Z,102225.41
2018-07-02T04:26:07.386Z,102226.16
2018-07-02T04:28:35.079Z,102224.09
2018-07-02T04:31:02.742Z,102219.55
2018-07-02T04:33:30.433Z,102223.14
2018-07-02T04:35:58.233Z,102220.37
2018-07-02T04:38:25.910Z,102215.98
2018-07-02T04:40:53.601Z,102211.16
2018-07-02T04:43:21.305Z,102204.45
2018-07-02T04:45:49.010Z,102203.95
2018-07-02T04:48:16.709Z,102205.28
2018-07-02T04:50:44.425Z,102198.80
2018-07-02T04:53:12.168Z,102190.69
2018-07-02T04:55:39.886Z,102191.09
2018-07-02T04:58:07.569Z,102184.78
2018-07-02T05:00:35.322Z,102181.48
2018-07-02T05:03:02.990Z,102176.66
2018-07-02T05:05:30.703Z,102135.01
2018-07-02T05:07:58.384Z,102169.97
2018-07-02T05:10:26.055Z,102176.95
2018-07-02T05:12:53.721Z,102176.17
2018-07-02T05:15:21.379Z,102159.27
2018-07-02T05:17:49.032Z,102166.14
2018-07-02T05:20:16.880Z,102167.19
2018-07-02T05:22:44.413Z,102169.83
2018-07-02T05:25:12.078Z,102165.58
2018-07-02T05:27:39.767Z,102165.67
2018-07-02T05:30:07.486Z,102168.35
2018-07-02T05:32:35.165Z,102171.80
2018-07-02T05:35:02.854Z,102179.94
2018-07-02T05:37:30.537Z,102170.97
2018-07-02T05:39:58.214Z,102169.69
2018-07-02T05:42:25.880Z,102172.16
2018-07-02T05:44:53.634Z,102168.55
2018-07-02T05:47:21.324Z,102158.58
2018-07-02T05:49:48.999Z,102158.20
2018-07-02T05:52:16.707Z,102155.86
2018-07-02T05:54:44.397Z,102152.85
2018-07-02T05:57:12.077Z,102152.19
2018-07-02T05:59:39.834Z,102148.77
2018-07-02T06:02:07.529Z,102151.41
2018-07-02T06:04:35.207Z,102158.87
2018-07-02T06:07:02.889Z,102149.13
2018-07-02T06:09:30.568Z,102151.07
2018-07-02T06:11:58.251Z,102157.57
2018-07-02T06:14:25.953Z,102163.16
2018-07-02T06:16:53.648Z,102160.89
2018-07-02T06:19:21.375Z,102155.96
2018-07-02T06:21:49.074Z,102153.55
2018-07-02T06:24:16.761Z,102151.15
2018-07-02T06:26:44.454Z,102150.74
2018-07-02T06:29:12.145Z,102154.39
2018-07-02T06:31:39.873Z,102159.47
2018-07-02T06:34:07.553Z,102147.79
2018-07-02T06:36:35.232Z,102143.91
2018-07-02T06:39:03.412Z,102147.66
2018-07-02T06:41:31.103Z,102140.12
2018-07-02T06:43:58.758Z,102147.55
2018-07-02T06:46:26.439Z,102142.77
2018-07-02T06:48:54.121Z,102147.05
2018-07-02T06:51:21.793Z,102144.75
2018-07-02T06:53:49.482Z,102140.86
2018-07-02T06:56:17.162Z,102148.63
2018-07-02T06:58:44.844Z,102140.09
2018-07-02T07:01:12.531Z,102133.80
2018-07-02T07:03:40.200Z,102132.47
2018-07-02T07:06:07.869Z,102126.61
2018-07-02T07:08:35.582Z,102128.45
2018-07-02T07:11:03.311Z,102122.73
2018-07-02T07:13:30.969Z,102122.83
2018-07-02T07:15:58.659Z,102125.64
2018-07-02T07:18:26.333Z,102120.15
2018-07-02T07:20:54.014Z,102119.18
2018-07-02T07:23:21.710Z,102119.41
2018-07-02T07:25:49.419Z,102118.67
2018-07-02T07:28:17.127Z,102116.73
2018-07-02T07:30:44.922Z,102113.79
2018-07-02T07:33:12.594Z,102117.00
2018-07-02T07:35:40.286Z,102108.30
2018-07-02T07:38:08.012Z,102100.67
2018-07-02T07:40:35.728Z,102105.63
2018-07-02T07:43:03.418Z,102101.51
2018-07-02T07:45:31.109Z,102099.94
2018-07-02T07:47:58.803Z,102098.23
2018-07-02T07:50:26.504Z,102091.03
2018-07-02T07:52:54.206Z,102089.97
2018-07-02T07:55:21.854Z,102086.66
2018-07-02T07:57:49.526Z,102085.22
2018-07-02T08:00:17.218Z,102082.17
2018-07-02T08:02:44.907Z,102089.70
2018-07-02T08:05:12.652Z,102079.59
2018-07-02T08:07:40.346Z,102076.81
2018-07-02T08:10:08.025Z,102074.24
2018-07-02T08:12:35.727Z,102069.25
2018-07-02T08:15:03.494Z,102074.97
2018-07-02T08:17:31.189Z,102063.30
2018-07-02T08:19:58.895Z,102066.71
2018-07-02T08:22:26.593Z,102061.96
2018-07-02T08:24:54.346Z,102059.66
2018-07-02T08:27:22.028Z,102059.28
2018-07-02T08:29:49.694Z,102054.30
2018-07-02T08:32:17.406Z,102063.53
2018-07-02T08:34:45.098Z,102056.47
2018-07-02T08:37:12.787Z,102049.78
2018-07-02T08:39:40.503Z,102054.30
2018-07-02T08:42:08.298Z,102051.02
2018-07-02T08:44:35.962Z,102041.38
2018-07-02T08:47:03.721Z,102036.64
2018-07-02T08:49:31.402Z,102033.28
2018-07-02T08:51:59.074Z,102028.88
2018-07-02T08:54:27.019Z,102031.31
2018-07-02T08:56:54.692Z,102025.59
2018-07-02T08:59:22.377Z,102027.27
2018-07-02T09:01:50.042Z,102024.48
2018-07-02T09:04:17.718Z,102023.38
2018-07-02T09:06:45.443Z,102013.89
2018-07-02T09:09:13.324Z,102006.36
2018-07-02T09:11:41.016Z,102009.50
2018-07-02T09:14:08.727Z,102004.88
2018-07-02T09:16:36.426Z,102000.77
2018-07-02T09:19:04.125Z,101995.44
2018-07-02T09:21:32.506Z,101995.08
2018-07-02T09:24:00.326Z,101991.64
2018-07-02T09:26:28.037Z,101993.34
2018-07-02T09:28:55.710Z,101982.87
2018-07-02T09:31:23.392Z,101981.53
2018-07-02T09:33:51.085Z,101985.08
2018-07-02T09:36:18.789Z,101978.64
2018-07-02T09:38:46.497Z,101977.78
2018-07-02T09:41:14.319Z,101982.41
2018-07-02T09:43:42.021Z,101977.17
2018-07-02T09:46:09.966Z,101974.02
2018-07-02T09:48:37.659Z,101971.22
2018-07-02T09:51:05.369Z,101972.82
2018-07-02T09:53:33.064Z,101966.59
2018-07-02T09:56:00.719Z,101970.51
2018-07-02T09:58:28.417Z,101967.70
2018-07-02T10:00:56.149Z,101957.35
2018-07-02T10:03:23.817Z,101960.53
2018-07-02T10:05:51.517Z,101953.58
2018-07-02T10:08:19.202Z,101949.80
2018-07-02T10:10:46.906Z,101945.20
2018-07-02T10:13:14.606Z,101942.77
2018-07-02T10:15:42.300Z,101936.92
2018-07-02T10:18:10.006Z,101934.84
2018-07-02T10:20:37.759Z,101934.36
2018-07-02T10:23:05.836Z,101921.72
2018-07-02T10:25:33.521Z,101925.85
2018-07-02T10:28:01.193Z,101922.19
2018-07-02T10:30:28.844Z,101922.92
2018-07-02T10:32:56.550Z,101919.39
2018-07-02T10:35:24.238Z,101906.12
2018-07-02T10:37:51.907Z,101911.37
2018-07-02T10:40:19.589Z,101909.67
2018-07-02T10:42:47.265Z,101900.77
2018-07-02T10:45:15.517Z,101899.94
2018-07-02T10:47:43.191Z,101905.53
2018-07-02T10:50:10.873Z,101893.72
2018-07-02T10:52:38.577Z,101889.45
2018-07-02T10:55:06.354Z,101880.81
2018-07-02T10:57:34.066Z,101894.34
2018-07-02T11:00:02.020Z,101887.39
2018-07-02T11:02:29.757Z,101888.48
2018-07-02T11:04:57.489Z,101887.51
2018-07-02T11:07:25.208Z,101882.27
2018-07-02T11:09:52.909Z,101882.16
2018-07-02T11:12:20.598Z,101875.46
2018-07-02T11:14:48.518Z,101874.23
2018-07-02T11:17:16.179Z,101873.27
2018-07-02T11:19:43.852Z,101865.48
2018-07-02T11:22:11.547Z,101871.70
2018-07-02T11:24:39.266Z,101866.21
2018-07-02T11:27:06.960Z,101863.94
2018-07-02T11:29:34.635Z,101862.70
2018-07-02T11:32:02.315Z,101867.55
2018-07-02T11:34:30.052Z,101854.05
2018-07-02T11:36:57.756Z,101849.83
2018-07-02T11:39:25.422Z,101848.48
2018-07-02T11:41:53.333Z,101839.94
2018-07-02T11:44:21.010Z,101840.34
2018-07-02T11:46:48.721Z,101825.12
2018-07-02T11:49:16.405Z,101832.89
2018-07-02T11:51:44.146Z,101828.66
2018-07-02T11:54:11.894Z,101834.59
2018-07-02T11:56:39.605Z,101827.80
2018-07-02T11:59:07.315Z,101822.33
2018-07-02T12:01:34.978Z,101819.87
2018-07-02T12:04:02.639Z,101827.75
2018-07-02T12:06:30.302Z,101819.40
2018-07-02T12:08:58.056Z,101816.83
2018-07-02T12:11:25.751Z,101812.09
2018-07-02T12:13:53.508Z,101819.29
2018-07-02T12:16:21.193Z,101812.34
2018-07-02T12:18:49.105Z,101808.44
2018-07-02T12:21:16.778Z,101808.33
2018-07-02T12:23:52.202Z,101810.39
2018-07-02T12:26:19.877Z,101811.01
2018-07-02T12:28:47.548Z,101803.34
2018-07-02T12:31:15.250Z,101801.24
2018-07-02T12:33:42.942Z,101799.69
2018-07-02T12:36:10.614Z,101800.30
2018-07-02T12:38:38.314Z,101759.91
2018-07-02T12:41:06.471Z,101795.92
2018-07-02T12:43:34.159Z,101796.39
2018-07-02T12:46:01.827Z,101787.73
2018-07-02T12:48:29.507Z,101784.48
2018-07-02T12:50:57.178Z,101782.17
2018-07-02T12:53:24.832Z,101783.98
2018-07-02T12:55:52.715Z,101786.41
2018-07-02T12:58:20.378Z,101782.17
2018-07-02T13:00:48.081Z,101789.08
2018-07-02T13:03:15.800Z,101785.28
2018-07-02T13:05:43.523Z,101785.67
2018-07-02T13:08:11.271Z,101777.86
2018-07-02T13:10:39.039Z,101769.72
2018-07-02T13:13:06.823Z,101773.13
2018-07-02T13:15:34.542Z,101769.25
2018-07-02T13:18:02.228Z,101773.63
2018-07-02T13:20:29.900Z,101770.45
2018-07-02T13:22:57.549Z,101773.48
2018-07-02T13:25:25.233Z,101770.45
2018-07-02T13:27:52.933Z,101765.34
2018-07-02T13:30:20.847Z,101765.84
2018-07-02T13:32:48.654Z,101750.50
2018-07-02T13:35:16.325Z,101749.67
2018-07-02T13:37:44.042Z,101758.17
2018-07-02T13:40:11.718Z,101744.17
2018-07-02T13:42:39.376Z,101745.27
2018-07-02T13:45:07.132Z,101736.28
2018-07-02T13:47:34.871Z,101739.19
2018-07-02T13:50:02.678Z,101734.59
2018-07-02T13:52:30.342Z,101732.13
2018-07-02T13:54:58.044Z,101724.83
2018-07-02T13:57:25.722Z,101721.78
2018-07-02T13:59:53.404Z,101722.04
2018-07-02T14:02:21.556Z,101711.58
2018-07-02T14:04:49.699Z,101714.01
2018-07-02T14:07:17.554Z,101712.56
2018-07-02T14:09:45.260Z,101711.44
2018-07-02T14:12:12.943Z,101713.86
2018-07-02T14:14:40.665Z,101710.57
2018-07-02T14:17:08.448Z,101708.15
2018-07-02T14:19:36.125Z,101705.36
2018-07-02T14:22:03.946Z,101703.52
2018-07-02T14:24:31.757Z,101706.70
2018-07-02T14:26:59.510Z,101708.77
2018-07-02T14:29:27.244Z,101707.42
2018-07-02T14:31:54.998Z,101699.76
2018-07-02T14:34:22.708Z,101708.91
2018-07-02T14:36:50.427Z,101701.34
2018-07-02T14:39:18.218Z,101700.38
2018-07-02T14:41:45.908Z,101698.67
2018-07-02T14:44:13.634Z,101691.62
2018-07-02T14:46:41.341Z,101697.22
2018-07-02T14:49:09.030Z,101693.09
2018-07-02T14:51:36.735Z,101682.28
2018-07-02T14:54:04.462Z,101680.91
2018-07-02T14:56:32.175Z,101676.78
2018-07-02T14:58:59.916Z,101675.81
2018-07-02T15:01:30.614Z,101683.69
2018-07-02T15:03:58.289Z,101683.95
2018-07-02T15:06:26.038Z,101676.78
2018-07-02T15:08:53.739Z,101677.52
2018-07-02T15:11:21.407Z,101675.09
2018-07-02T15:13:49.074Z,101680.19
2018-07-02T15:16:17.022Z,101638.53
2018-07-02T15:18:44.701Z,101684.70
2018-07-02T15:21:12.421Z,101683.63
2018-07-02T15:23:40.129Z,101680.95
2018-07-02T15:26:07.877Z,101679.21
2018-07-02T15:28:36.474Z,101683.73
2018-07-02T15:31:04.214Z,101679.11
2018-07-02T15:33:31.939Z,101688.11
2018-07-02T15:35:59.657Z,101686.27
2018-07-02T15:38:27.335Z,101678.70
2018-07-02T15:40:55.015Z,101676.06
2018-07-02T15:43:22.784Z,101676.93
2018-07-02T15:45:50.469Z,101671.80
2018-07-02T15:48:18.248Z,101674.36
2018-07-02T15:50:45.902Z,101673.28
2018-07-02T15:53:13.649Z,101670.46
2018-07-02T15:55:41.337Z,101659.64
2018-07-02T15:58:09.384Z,101664.75
2018-07-02T16:00:37.658Z,101659.90
2018-07-02T16:03:05.418Z,101662.21
2018-07-02T16:05:33.133Z,101657.95
2018-07-02T16:08:01.150Z,101655.27
2018-07-02T16:10:29.257Z,101657.11
2018-07-02T16:12:57.033Z,101655.88
2018-07-02T16:15:24.719Z,101657.95
2018-07-02T16:17:52.429Z,101654.55
2018-07-02T16:20:20.121Z,101648.47
2018-07-02T16:22:47.831Z,101655.88
2018-07-02T16:25:15.571Z,101661.95
2018-07-02T16:27:43.247Z,101657.95
2018-07-02T16:30:10.965Z,101657.22
2018-07-02T16:32:38.886Z,101656.25
2018-07-02T16:35:06.553Z,101654.77
2018-07-02T16:37:34.249Z,101655.27
2018-07-02T16:40:02.077Z,101659.39
2018-07-02T16:42:29.859Z,101653.06
2018-07-02T16:44:59.237Z,101653.06
2018-07-02T16:47:26.897Z,101654.03
2018-07-02T16:49:54.548Z,101647.55
2018-07-02T16:52:22.261Z,101650.23
2018-07-02T16:54:49.958Z,101646.32
2018-07-02T16:57:17.616Z,101640.39
2018-07-02T16:59:45.444Z,101637.21
2018-07-02T17:02:13.192Z,101635.88
2018-07-02T17:04:40.886Z,101639.99
2018-07-02T17:07:08.626Z,101634.53
2018-07-02T17:09:36.373Z,101630.27
2018-07-02T17:12:04.054Z,101627.73
2018-07-02T17:14:31.798Z,101629.06
2018-07-02T17:16:59.482Z,101625.05
2018-07-02T17:19:27.164Z,101623.56
2018-07-02T17:21:54.905Z,101622.95
2018-07-02T17:24:22.595Z,101626.25
2018-07-02T17:26:50.369Z,101624.55
2018-07-02T17:29:18.085Z,101617.86
2018-07-02T17:31:45.750Z,101622.63
2018-07-02T17:34:13.421Z,101613.37
2018-07-02T17:36:41.109Z,101607.66
2018-07-02T17:39:09.973Z,101564.08
2018-07-02T17:41:37.773Z,101606.78
2018-07-02T17:44:05.562Z,101602.04
2018-07-02T17:46:33.242Z,101610.55
2018-07-02T17:49:00.953Z,101604.11
2018-07-02T17:51:28.689Z,101600.23
2018-07-02T17:53:56.346Z,101597.67
2018-07-02T17:56:24.005Z,101599.63
2018-07-02T17:58:51.699Z,101600.72
2018-07-02T18:01:19.360Z,101598.03
2018-07-02T18:03:47.099Z,101596.34
2018-07-02T18:06:14.770Z,101595.86
2018-07-02T18:08:42.437Z,101597.20
2018-07-02T18:11:10.104Z,101592.73
2018-07-02T18:13:37.999Z,101595.16
2018-07-02T18:16:05.701Z,101594.80
2018-07-02T18:18:33.351Z,101586.52
2018-07-02T18:21:01.050Z,101589.08
2018-07-02T18:23:28.719Z,101589.19
2018-07-02T18:25:56.385Z,101594.38
2018-07-02T18:28:24.108Z,101589.28
2018-07-02T18:30:51.825Z,101585.27
2018-07-02T18:33:19.514Z,101583.10
2018-07-02T18:35:47.189Z,101579.80
2018-07-02T18:38:14.877Z,101583.46
2018-07-02T18:40:42.531Z,101575.79
2018-07-02T18:43:10.205Z,101580.64
2018-07-02T18:45:37.843Z,101588.41
2018-07-02T18:48:05.600Z,101585.26
2018-07-02T18:50:33.261Z,101587.94
2018-07-02T18:53:00.938Z,101588.77
2018-07-02T18:55:28.674Z,101585.62
2018-07-02T18:57:56.414Z,101585.11
2018-07-02T19:00:24.227Z,101583.05
2018-07-02T19:02:51.971Z,101588.30
2018-07-02T19:05:19.701Z,101592.58
2018-07-02T19:07:47.397Z,101594.69
2018-07-02T19:10:15.066Z,101594.08
2018-07-02T19:12:42.745Z,101588.11
2018-07-02T19:15:10.462Z,101588.11
2018-07-02T19:17:38.153Z,101590.06
2018-07-02T19:20:06.126Z,101586.81
2018-07-02T19:22:33.809Z,101590.72
2018-07-02T19:25:01.487Z,101580.64
2018-07-02T19:27:29.209Z,101580.64
2018-07-02T19:29:56.930Z,101581.94
2018-07-02T19:32:24.628Z,101578.63
2018-07-02T19:34:52.305Z,101586.25
2018-07-02T19:37:20.010Z,101585.99
2018-07-02T19:39:47.701Z,101586.03
2018-07-02T19:42:15.413Z,101587.50
2018-07-02T19:44:43.056Z,101592.28
2018-07-02T19:47:10.708Z,101593.98
2018-07-02T19:49:38.394Z,101590.06
2018-07-02T19:52:06.194Z,101596.73
2018-07-02T19:54:33.832Z,101587.33
2018-07-02T19:57:01.499Z,101586.70
2018-07-02T19:59:29.321Z,101585.25
2018-07-02T20:01:56.994Z,101502.59
2018-07-02T20:04:24.684Z,101588.67
2018-07-02T20:06:52.411Z,101579.53
2018-07-02T20:09:20.033Z,101581.41
2018-07-02T20:11:47.689Z,101587.64
2018-07-02T20:14:15.357Z,101583.63
2018-07-02T20:16:42.997Z,101576.11
2018-07-02T20:19:10.904Z,101574.57
2018-07-02T20:21:38.574Z,101575.76
2018-07-02T20:24:06.261Z,101579.06
2018-07-02T20:26:33.911Z,101574.32
2018-07-02T20:29:01.557Z,101571.65
2018-07-02T20:31:29.200Z,101569.52
2018-07-02T20:33:56.857Z,101575.23
2018-07-02T20:36:24.506Z,101569.98
2018-07-02T20:38:52.137Z,101569.52
2018-07-02T20:41:19.801Z,101570.24
2018-07-02T20:43:47.481Z,101567.72
2018-07-02T20:46:15.119Z,101559.22
2018-07-02T20:48:42.774Z,101564.78
2018-07-02T20:51:10.439Z,101557.48
2018-07-02T20:53:38.137Z,101554.45
2018-07-02T20:56:06.468Z,101556.30
2018-07-02T20:58:34.121Z,101553.47
2018-07-02T21:01:01.797Z,101556.19
2018-07-02T21:03:29.434Z,101555.45
2018-07-02T21:05:57.129Z,101556.66
2018-07-02T21:08:24.769Z,101560.55
2018-07-02T21:10:52.417Z,101565.77
2018-07-02T21:13:20.077Z,101555.31
2018-07-02T21:15:47.817Z,101550.83
2018-07-02T21:20:47.542Z,101552.17
2018-07-02T21:23:15.282Z,101544.41
2018-07-02T21:25:42.945Z,101552.42
2018-07-02T21:28:10.601Z,101552.06
2018-07-02T21:30:38.268Z,101556.08
2018-07-02T21:33:05.970Z,101556.80
2018-07-02T21:35:33.609Z,101556.33
2018-07-02T21:38:01.264Z,101558.73
2018-07-02T21:40:28.965Z,101550.83
2018-07-02T21:42:56.613Z,101544.28
2018-07-02T21:45:24.272Z,101542.37
2018-07-02T21:47:51.899Z,101540.27
2018-07-02T21:50:19.566Z,101540.64
2018-07-02T21:52:47.277Z,101544.64
2018-07-02T21:55:14.955Z,101536.41
2018-07-02T21:57:42.620Z,101538.08
2018-07-02T22:00:12.278Z,101538.94
2018-07-02T22:02:39.967Z,101537.12
2018-07-02T22:05:08.489Z,101535.44
2018-07-02T22:07:36.373Z,101529.11
2018-07-02T22:10:04.192Z,101525.92
2018-07-02T22:12:31.877Z,101521.20
2018-07-02T22:14:59.537Z,101522.06
2018-07-02T22:17:27.197Z,101522.31
2018-07-02T22:19:54.858Z,101521.59
2018-07-02T22:22:22.517Z,101520.11
2018-07-02T22:24:50.180Z,101522.67
2018-07-02T22:27:17.890Z,101516.85
2018-07-02T22:29:45.529Z,101517.09
2018-07-02T22:32:13.213Z,101513.71
2018-07-02T22:34:40.878Z,101514.67
2018-07-02T22:37:08.525Z,101506.77
2018-07-02T22:39:36.169Z,101501.55
2018-07-02T22:42:03.846Z,101506.05
2018-07-02T22:44:31.509Z,101499.84
2018-07-02T22:46:59.165Z,101503.86
2018-07-02T22:49:26.805Z,101507.39
2018-07-02T22:51:54.449Z,101503.39
2018-07-02T22:54:22.090Z,101505.09
2018-07-02T22:56:49.907Z,101504.84
2018-07-02T22:59:17.541Z,101503.62
2018-07-02T23:01:45.293Z,101501.70
2018-07-02T23:04:12.897Z,101509.20
2018-07-02T23:06:40.542Z,101506.42
2018-07-02T23:09:09.286Z,101504.35
2018-07-02T23:11:36.953Z,101498.89
2018-07-02T23:14:04.925Z,101498.54
2018-07-02T23:16:32.569Z,101500.23
2018-07-02T23:19:00.219Z,101497.31
2018-07-02T23:21:27.862Z,101499.61
2018-07-02T23:23:55.489Z,101497.44
2018-07-02T23:26:23.126Z,101500.23
2018-07-02T23:28:51.062Z,101496.34
2018-07-02T23:31:18.701Z,101497.91
2018-07-02T23:33:46.326Z,101503.39
2018-07-02T23:36:13.961Z,101504.72
2018-07-02T23:38:41.585Z,101503.03
2018-07-02T23:41:09.286Z,101505.70
2018-07-02T23:43:36.926Z,101505.70
2018-07-02T23:46:04.649Z,101508.13
2018-07-02T23:48:32.293Z,101503.73
2018-07-02T23:50:59.960Z,101500.96
2018-07-02T23:53:27.637Z,101498.42
2018-07-02T23:55:55.301Z,101499.96
2018-07-02T23:58:22.953Z,101495.58
